sensor_id;sensor_type;location;lat;lon;timestamp;temperature;humidity
47174;DHT22;36730;49.036;9.094;2022-07-29T00:01:34;29.80;58.80
47174;DHT22;36730;49.036;9.094;2022-07-29T00:03:59;29.80;59.50
47174;DHT22;36730;49.036;9.094;2022-07-29T00:06:25;29.80;59.00
47174;DHT22;36730;49.036;9.094;2022-07-29T00:08:50;29.80;59.00
47174;DHT22;36730;49.036;9.094;2022-07-29T00:11:16;29.70;59.00
47174;DHT22;36730;49.036;9.094;2022-07-29T00:13:41;29.70;59.00
47174;DHT22;36730;49.036;9.094;2022-07-29T00:16:07;29.70;59.10
47174;DHT22;36730;49.036;9.094;2022-07-29T00:18:32;29.70;59.30
47174;DHT22;36730;49.036;9.094;2022-07-29T00:20:58;29.70;59.30
47174;DHT22;36730;49.036;9.094;2022-07-29T00:23:23;29.70;59.30
47174;DHT22;36730;49.036;9.094;2022-07-29T00:25:49;29.70;59.40
47174;DHT22;36730;49.036;9.094;2022-07-29T00:28:14;29.70;59.40
47174;DHT22;36730;49.036;9.094;2022-07-29T00:30:40;29.70;59.50
47174;DHT22;36730;49.036;9.094;2022-07-29T00:33:08;29.70;59.50
47174;DHT22;36730;49.036;9.094;2022-07-29T00:35:33;29.70;59.60
47174;DHT22;36730;49.036;9.094;2022-07-29T00:38:12;29.70;59.60
47174;DHT22;36730;49.036;9.094;2022-07-29T00:40:38;29.70;59.70
47174;DHT22;36730;49.036;9.094;2022-07-29T00:43:03;29.70;59.70
47174;DHT22;36730;49.036;9.094;2022-07-29T00:45:29;29.70;59.80
47174;DHT22;36730;49.036;9.094;2022-07-29T00:47:55;29.60;59.80
47174;DHT22;36730;49.036;9.094;2022-07-29T00:50:20;29.60;59.80
47174;DHT22;36730;49.036;9.094;2022-07-29T00:52:46;29.70;59.90
47174;DHT22;36730;49.036;9.094;2022-07-29T00:55:13;29.60;59.90
47174;DHT22;36730;49.036;9.094;2022-07-29T00:57:39;29.60;60.00
47174;DHT22;36730;49.036;9.094;2022-07-29T01:00:06;29.60;60.00
47174;DHT22;36730;49.036;9.094;2022-07-29T01:02:31;29.60;60.10
47174;DHT22;36730;49.036;9.094;2022-07-29T01:04:57;29.60;60.00
47174;DHT22;36730;49.036;9.094;2022-07-29T01:07:23;29.60;60.10
47174;DHT22;36730;49.036;9.094;2022-07-29T01:09:49;29.60;60.10
47174;DHT22;36730;49.036;9.094;2022-07-29T01:12:19;29.60;60.30
47174;DHT22;36730;49.036;9.094;2022-07-29T01:14:46;29.50;60.30
47174;DHT22;36730;49.036;9.094;2022-07-29T01:17:32;29.50;60.30
47174;DHT22;36730;49.036;9.094;2022-07-29T01:25:32;29.50;60.40
47174;DHT22;36730;49.036;9.094;2022-07-29T01:30:37;29.50;60.30
47174;DHT22;36730;49.036;9.094;2022-07-29T01:33:06;29.50;60.50
47174;DHT22;36730;49.036;9.094;2022-07-29T01:35:39;29.50;60.60
47174;DHT22;36730;49.036;9.094;2022-07-29T01:38:09;29.50;60.50
47174;DHT22;36730;49.036;9.094;2022-07-29T01:40:52;29.50;60.50
47174;DHT22;36730;49.036;9.094;2022-07-29T01:43:20;29.50;60.60
47174;DHT22;36730;49.036;9.094;2022-07-29T01:45:48;29.50;60.60
47174;DHT22;36730;49.036;9.094;2022-07-29T01:50:52;29.50;60.70
47174;DHT22;36730;49.036;9.094;2022-07-29T01:53:32;29.40;60.70
47174;DHT22;36730;49.036;9.094;2022-07-29T01:55:59;29.40;60.70
47174;DHT22;36730;49.036;9.094;2022-07-29T01:58:25;29.40;60.70
47174;DHT22;36730;49.036;9.094;2022-07-29T02:00:52;29.40;60.70
47174;DHT22;36730;49.036;9.094;2022-07-29T02:03:18;29.40;60.80
47174;DHT22;36730;49.036;9.094;2022-07-29T02:05:45;29.40;60.80
47174;DHT22;36730;49.036;9.094;2022-07-29T02:08:11;29.40;60.80
47174;DHT22;36730;49.036;9.094;2022-07-29T02:10:38;29.40;60.90
47174;DHT22;36730;49.036;9.094;2022-07-29T02:13:05;29.40;60.90
47174;DHT22;36730;49.036;9.094;2022-07-29T02:15:31;29.40;60.90
47174;DHT22;36730;49.036;9.094;2022-07-29T02:18:11;29.40;61.00
47174;DHT22;36730;49.036;9.094;2022-07-29T02:20:38;29.40;61.00
47174;DHT22;36730;49.036;9.094;2022-07-29T02:23:04;29.40;61.00
47174;DHT22;36730;49.036;9.094;2022-07-29T02:25:30;29.40;61.00
47174;DHT22;36730;49.036;9.094;2022-07-29T02:27:56;29.40;61.10
47174;DHT22;36730;49.036;9.094;2022-07-29T02:30:22;29.30;61.00
47174;DHT22;36730;49.036;9.094;2022-07-29T02:32:49;29.40;61.60
47174;DHT22;36730;49.036;9.094;2022-07-29T02:35:16;29.40;61.10
47174;DHT22;36730;49.036;9.094;2022-07-29T02:37:43;29.30;61.10
47174;DHT22;36730;49.036;9.094;2022-07-29T02:40:13;29.40;61.20
47174;DHT22;36730;49.036;9.094;2022-07-29T02:42:40;29.30;61.20
47174;DHT22;36730;49.036;9.094;2022-07-29T02:45:06;29.30;61.30
47174;DHT22;36730;49.036;9.094;2022-07-29T02:47:36;29.30;61.30
47174;DHT22;36730;49.036;9.094;2022-07-29T02:50:04;29.20;61.30
47174;DHT22;36730;49.036;9.094;2022-07-29T02:52:41;29.20;61.30
47174;DHT22;36730;49.036;9.094;2022-07-29T02:57:34;29.30;61.40
47174;DHT22;36730;49.036;9.094;2022-07-29T03:00:03;29.30;61.30
47174;DHT22;36730;49.036;9.094;2022-07-29T03:02:31;29.30;61.40
47174;DHT22;36730;49.036;9.094;2022-07-29T03:04:58;29.30;61.40
47174;DHT22;36730;49.036;9.094;2022-07-29T03:07:24;29.20;61.50
47174;DHT22;36730;49.036;9.094;2022-07-29T03:09:50;29.10;62.30
47174;DHT22;36730;49.036;9.094;2022-07-29T03:12:16;28.70;63.10
47174;DHT22;36730;49.036;9.094;2022-07-29T03:14:42;28.30;64.60
47174;DHT22;36730;49.036;9.094;2022-07-29T03:17:08;27.80;66.30
47174;DHT22;36730;49.036;9.094;2022-07-29T03:19:34;27.30;68.20
47174;DHT22;36730;49.036;9.094;2022-07-29T03:22:00;27.00;69.50
47174;DHT22;36730;49.036;9.094;2022-07-29T03:24:30;26.90;70.60
47174;DHT22;36730;49.036;9.094;2022-07-29T03:26:56;26.80;70.30
47174;DHT22;36730;49.036;9.094;2022-07-29T03:29:22;26.70;70.60
47174;DHT22;36730;49.036;9.094;2022-07-29T03:31:47;26.60;70.60
47174;DHT22;36730;49.036;9.094;2022-07-29T03:34:13;26.50;71.50
47174;DHT22;36730;49.036;9.094;2022-07-29T03:36:38;26.40;70.90
47174;DHT22;36730;49.036;9.094;2022-07-29T03:39:04;26.40;70.50
47174;DHT22;36730;49.036;9.094;2022-07-29T03:41:30;26.20;70.80
47174;DHT22;36730;49.036;9.094;2022-07-29T03:43:56;26.10;71.60
47174;DHT22;36730;49.036;9.094;2022-07-29T03:46:23;26.00;71.10
47174;DHT22;36730;49.036;9.094;2022-07-29T03:48:50;25.90;72.60
47174;DHT22;36730;49.036;9.094;2022-07-29T03:51:15;25.80;72.40
47174;DHT22;36730;49.036;9.094;2022-07-29T03:53:41;25.80;72.80
47174;DHT22;36730;49.036;9.094;2022-07-29T03:56:06;25.60;73.00
47174;DHT22;36730;49.036;9.094;2022-07-29T03:58:33;25.60;73.00
47174;DHT22;36730;49.036;9.094;2022-07-29T04:00:59;25.50;74.00
47174;DHT22;36730;49.036;9.094;2022-07-29T04:03:25;25.40;74.00
47174;DHT22;36730;49.036;9.094;2022-07-29T04:06:04;25.30;75.40
47174;DHT22;36730;49.036;9.094;2022-07-29T04:08:31;25.20;75.30
47174;DHT22;36730;49.036;9.094;2022-07-29T04:10:57;25.20;75.30
47174;DHT22;36730;49.036;9.094;2022-07-29T04:13:22;25.10;75.10
47174;DHT22;36730;49.036;9.094;2022-07-29T04:15:48;25.10;75.40
47174;DHT22;36730;49.036;9.094;2022-07-29T04:18:13;25.10;75.00
47174;DHT22;36730;49.036;9.094;2022-07-29T04:20:39;25.00;75.10
47174;DHT22;36730;49.036;9.094;2022-07-29T04:23:04;24.90;75.40
47174;DHT22;36730;49.036;9.094;2022-07-29T04:25:30;24.90;77.50
47174;DHT22;36730;49.036;9.094;2022-07-29T04:27:55;24.80;76.40
47174;DHT22;36730;49.036;9.094;2022-07-29T04:30:27;24.70;77.30
47174;DHT22;36730;49.036;9.094;2022-07-29T04:32:52;24.70;79.80
47174;DHT22;36730;49.036;9.094;2022-07-29T04:35:18;24.60;79.80
47174;DHT22;36730;49.036;9.094;2022-07-29T04:37:44;24.60;79.80
47174;DHT22;36730;49.036;9.094;2022-07-29T04:40:09;24.60;81.60
47174;DHT22;36730;49.036;9.094;2022-07-29T04:42:35;24.60;82.70
47174;DHT22;36730;49.036;9.094;2022-07-29T04:45:01;24.60;82.60
47174;DHT22;36730;49.036;9.094;2022-07-29T04:47:26;24.60;83.50
47174;DHT22;36730;49.036;9.094;2022-07-29T04:49:52;24.50;83.30
47174;DHT22;36730;49.036;9.094;2022-07-29T04:52:17;24.60;83.80
47174;DHT22;36730;49.036;9.094;2022-07-29T04:54:43;24.60;83.10
47174;DHT22;36730;49.036;9.094;2022-07-29T04:57:08;24.50;83.80
47174;DHT22;36730;49.036;9.094;2022-07-29T04:59:34;24.60;83.80
47174;DHT22;36730;49.036;9.094;2022-07-29T05:01:59;24.60;83.50
47174;DHT22;36730;49.036;9.094;2022-07-29T05:04:24;24.60;83.30
47174;DHT22;36730;49.036;9.094;2022-07-29T05:06:50;24.70;83.40
47174;DHT22;36730;49.036;9.094;2022-07-29T05:09:15;24.70;83.40
47174;DHT22;36730;49.036;9.094;2022-07-29T05:11:41;24.70;83.00
47174;DHT22;36730;49.036;9.094;2022-07-29T05:14:06;24.70;83.80
47174;DHT22;36730;49.036;9.094;2022-07-29T05:16:32;24.60;84.10
47174;DHT22;36730;49.036;9.094;2022-07-29T05:18:58;24.60;84.20
47174;DHT22;36730;49.036;9.094;2022-07-29T05:21:24;24.60;83.50
47174;DHT22;36730;49.036;9.094;2022-07-29T05:23:49;24.70;84.50
47174;DHT22;36730;49.036;9.094;2022-07-29T05:26:15;24.70;85.80
47174;DHT22;36730;49.036;9.094;2022-07-29T05:28:41;24.60;85.60
47174;DHT22;36730;49.036;9.094;2022-07-29T05:31:06;24.70;85.40
47174;DHT22;36730;49.036;9.094;2022-07-29T05:33:31;24.70;85.20
47174;DHT22;36730;49.036;9.094;2022-07-29T05:35:57;24.70;85.20
47174;DHT22;36730;49.036;9.094;2022-07-29T05:38:23;24.70;85.30
47174;DHT22;36730;49.036;9.094;2022-07-29T05:40:48;24.60;84.90
47174;DHT22;36730;49.036;9.094;2022-07-29T05:43:14;24.60;86.70
47174;DHT22;36730;49.036;9.094;2022-07-29T05:45:39;24.70;86.40
47174;DHT22;36730;49.036;9.094;2022-07-29T05:48:05;24.80;85.60
47174;DHT22;36730;49.036;9.094;2022-07-29T05:50:30;24.80;85.10
47174;DHT22;36730;49.036;9.094;2022-07-29T05:52:56;24.80;86.40
47174;DHT22;36730;49.036;9.094;2022-07-29T05:55:21;24.80;86.30
47174;DHT22;36730;49.036;9.094;2022-07-29T05:57:47;24.80;86.30
47174;DHT22;36730;49.036;9.094;2022-07-29T06:00:12;24.90;85.10
47174;DHT22;36730;49.036;9.094;2022-07-29T06:02:38;25.00;84.90
47174;DHT22;36730;49.036;9.094;2022-07-29T06:05:03;25.00;85.50
47174;DHT22;36730;49.036;9.094;2022-07-29T06:07:29;25.00;86.30
47174;DHT22;36730;49.036;9.094;2022-07-29T06:09:55;25.00;86.10
47174;DHT22;36730;49.036;9.094;2022-07-29T06:12:21;25.10;86.90
47174;DHT22;36730;49.036;9.094;2022-07-29T06:14:46;25.10;87.40
47174;DHT22;36730;49.036;9.094;2022-07-29T06:17:12;25.10;86.60
47174;DHT22;36730;49.036;9.094;2022-07-29T06:19:37;25.10;87.40
47174;DHT22;36730;49.036;9.094;2022-07-29T06:22:03;25.10;87.30
47174;DHT22;36730;49.036;9.094;2022-07-29T06:24:28;25.10;85.90
47174;DHT22;36730;49.036;9.094;2022-07-29T06:26:54;25.10;86.10
47174;DHT22;36730;49.036;9.094;2022-07-29T06:29:19;25.20;88.60
47174;DHT22;36730;49.036;9.094;2022-07-29T06:31:45;25.20;87.30
47174;DHT22;36730;49.036;9.094;2022-07-29T06:34:10;25.20;87.50
47174;DHT22;36730;49.036;9.094;2022-07-29T06:36:37;25.20;87.10
47174;DHT22;36730;49.036;9.094;2022-07-29T06:39:06;25.20;90.50
47174;DHT22;36730;49.036;9.094;2022-07-29T06:41:32;25.30;87.00
47174;DHT22;36730;49.036;9.094;2022-07-29T06:43:57;25.30;87.20
47174;DHT22;36730;49.036;9.094;2022-07-29T06:46:23;25.30;86.60
47174;DHT22;36730;49.036;9.094;2022-07-29T06:48:48;25.40;86.00
47174;DHT22;36730;49.036;9.094;2022-07-29T06:51:14;25.50;85.90
47174;DHT22;36730;49.036;9.094;2022-07-29T06:53:40;25.60;85.60
47174;DHT22;36730;49.036;9.094;2022-07-29T06:56:06;25.60;85.70
47174;DHT22;36730;49.036;9.094;2022-07-29T06:58:33;25.80;85.30
47174;DHT22;36730;49.036;9.094;2022-07-29T07:01:00;25.80;84.50
47174;DHT22;36730;49.036;9.094;2022-07-29T07:03:26;25.90;83.10
47174;DHT22;36730;49.036;9.094;2022-07-29T07:05:52;25.90;83.80
47174;DHT22;36730;49.036;9.094;2022-07-29T07:08:19;26.00;82.20
47174;DHT22;36730;49.036;9.094;2022-07-29T07:10:44;26.00;82.70
47174;DHT22;36730;49.036;9.094;2022-07-29T07:13:10;26.10;82.40
47174;DHT22;36730;49.036;9.094;2022-07-29T07:15:35;26.10;82.80
47174;DHT22;36730;49.036;9.094;2022-07-29T07:18:01;26.20;82.00
47174;DHT22;36730;49.036;9.094;2022-07-29T07:20:27;26.30;81.80
47174;DHT22;36730;49.036;9.094;2022-07-29T07:22:52;26.30;81.40
47174;DHT22;36730;49.036;9.094;2022-07-29T07:25:18;26.30;81.60
47174;DHT22;36730;49.036;9.094;2022-07-29T07:27:44;26.40;80.40
47174;DHT22;36730;49.036;9.094;2022-07-29T07:30:10;26.40;80.20
47174;DHT22;36730;49.036;9.094;2022-07-29T07:32:35;26.40;81.10
47174;DHT22;36730;49.036;9.094;2022-07-29T07:35:01;26.50;80.70
47174;DHT22;36730;49.036;9.094;2022-07-29T07:37:27;26.50;81.10
47174;DHT22;36730;49.036;9.094;2022-07-29T07:39:52;26.60;80.50
47174;DHT22;36730;49.036;9.094;2022-07-29T07:42:18;26.60;79.70
47174;DHT22;36730;49.036;9.094;2022-07-29T07:44:44;26.60;79.60
47174;DHT22;36730;49.036;9.094;2022-07-29T07:47:13;26.70;79.40
47174;DHT22;36730;49.036;9.094;2022-07-29T07:49:39;26.70;79.60
47174;DHT22;36730;49.036;9.094;2022-07-29T07:52:04;26.80;78.60
47174;DHT22;36730;49.036;9.094;2022-07-29T07:54:30;26.80;77.90
47174;DHT22;36730;49.036;9.094;2022-07-29T07:56:56;26.80;77.70
47174;DHT22;36730;49.036;9.094;2022-07-29T07:59:21;26.80;77.60
47174;DHT22;36730;49.036;9.094;2022-07-29T08:01:47;26.90;77.70
47174;DHT22;36730;49.036;9.094;2022-07-29T08:04:12;26.90;77.50
47174;DHT22;36730;49.036;9.094;2022-07-29T08:06:38;26.90;77.50
47174;DHT22;36730;49.036;9.094;2022-07-29T08:09:04;27.00;77.10
47174;DHT22;36730;49.036;9.094;2022-07-29T08:11:30;27.00;77.10
47174;DHT22;36730;49.036;9.094;2022-07-29T08:13:55;27.00;77.10
47174;DHT22;36730;49.036;9.094;2022-07-29T08:16:21;27.10;76.30
47174;DHT22;36730;49.036;9.094;2022-07-29T08:18:47;27.10;75.70
47174;DHT22;36730;49.036;9.094;2022-07-29T08:21:13;27.20;76.40
47174;DHT22;36730;49.036;9.094;2022-07-29T08:23:39;27.20;76.10
47174;DHT22;36730;49.036;9.094;2022-07-29T08:26:05;27.30;75.70
47174;DHT22;36730;49.036;9.094;2022-07-29T08:28:31;27.30;77.00
47174;DHT22;36730;49.036;9.094;2022-07-29T08:30:56;27.30;76.30
47174;DHT22;36730;49.036;9.094;2022-07-29T08:33:22;27.30;76.60
47174;DHT22;36730;49.036;9.094;2022-07-29T08:35:47;27.40;75.90
47174;DHT22;36730;49.036;9.094;2022-07-29T08:38:13;27.40;76.00
47174;DHT22;36730;49.036;9.094;2022-07-29T08:40:39;27.50;75.60
47174;DHT22;36730;49.036;9.094;2022-07-29T08:43:07;27.50;75.80
47174;DHT22;36730;49.036;9.094;2022-07-29T08:45:41;27.50;75.00
47174;DHT22;36730;49.036;9.094;2022-07-29T08:48:07;27.50;74.70
47174;DHT22;36730;49.036;9.094;2022-07-29T08:50:34;27.60;74.20
47174;DHT22;36730;49.036;9.094;2022-07-29T08:53:00;27.60;74.30
47174;DHT22;36730;49.036;9.094;2022-07-29T08:55:26;27.60;75.00
47174;DHT22;36730;49.036;9.094;2022-07-29T08:57:52;27.60;74.80
47174;DHT22;36730;49.036;9.094;2022-07-29T09:00:18;27.70;74.80
47174;DHT22;36730;49.036;9.094;2022-07-29T09:02:44;27.70;74.30
47174;DHT22;36730;49.036;9.094;2022-07-29T09:05:11;27.80;73.60
47174;DHT22;36730;49.036;9.094;2022-07-29T09:07:36;27.80;73.30
47174;DHT22;36730;49.036;9.094;2022-07-29T09:10:04;27.90;73.70
47174;DHT22;36730;49.036;9.094;2022-07-29T09:12:29;27.90;73.10
47174;DHT22;36730;49.036;9.094;2022-07-29T09:14:55;28.00;73.40
47174;DHT22;36730;49.036;9.094;2022-07-29T09:17:38;28.10;72.30
47174;DHT22;36730;49.036;9.094;2022-07-29T09:20:11;28.10;73.80
47174;DHT22;36730;49.036;9.094;2022-07-29T09:22:37;28.10;70.90
47174;DHT22;36730;49.036;9.094;2022-07-29T09:25:02;28.20;71.60
47174;DHT22;36730;49.036;9.094;2022-07-29T09:27:28;28.20;72.10
47174;DHT22;36730;49.036;9.094;2022-07-29T09:30:07;28.20;71.20
47174;DHT22;36730;49.036;9.094;2022-07-29T09:32:57;28.30;67.90
47174;DHT22;36730;49.036;9.094;2022-07-29T09:35:22;28.30;68.70
47174;DHT22;36730;49.036;9.094;2022-07-29T09:37:48;28.30;67.30
47174;DHT22;36730;49.036;9.094;2022-07-29T09:40:17;28.30;67.80
47174;DHT22;36730;49.036;9.094;2022-07-29T09:42:43;28.30;66.80
47174;DHT22;36730;49.036;9.094;2022-07-29T09:45:09;28.40;67.00
47174;DHT22;36730;49.036;9.094;2022-07-29T09:50:06;28.40;65.40
47174;DHT22;36730;49.036;9.094;2022-07-29T09:52:32;28.40;65.70
47174;DHT22;36730;49.036;9.094;2022-07-29T09:55:09;28.40;64.70
47174;DHT22;36730;49.036;9.094;2022-07-29T09:57:35;28.40;63.50
47174;DHT22;36730;49.036;9.094;2022-07-29T10:00:03;28.40;62.10
47174;DHT22;36730;49.036;9.094;2022-07-29T10:02:31;28.50;64.70
47174;DHT22;36730;49.036;9.094;2022-07-29T10:04:57;28.50;63.20
47174;DHT22;36730;49.036;9.094;2022-07-29T10:07:22;28.50;63.10
47174;DHT22;36730;49.036;9.094;2022-07-29T10:09:49;28.50;62.60
47174;DHT22;36730;49.036;9.094;2022-07-29T10:12:17;28.60;63.30
47174;DHT22;36730;49.036;9.094;2022-07-29T10:14:42;28.70;62.50
47174;DHT22;36730;49.036;9.094;2022-07-29T10:17:09;28.70;61.90
47174;DHT22;36730;49.036;9.094;2022-07-29T10:19:35;28.70;61.90
47174;DHT22;36730;49.036;9.094;2022-07-29T10:22:02;28.80;61.30
47174;DHT22;36730;49.036;9.094;2022-07-29T10:24:30;28.80;60.50
47174;DHT22;36730;49.036;9.094;2022-07-29T10:26:56;28.80;60.10
47174;DHT22;36730;49.036;9.094;2022-07-29T10:29:22;28.80;61.50
47174;DHT22;36730;49.036;9.094;2022-07-29T10:34:23;28.90;60.00
47174;DHT22;36730;49.036;9.094;2022-07-29T10:36:59;28.90;59.00
47174;DHT22;36730;49.036;9.094;2022-07-29T10:39:38;29.00;58.90
47174;DHT22;36730;49.036;9.094;2022-07-29T10:42:22;29.10;58.00
47174;DHT22;36730;49.036;9.094;2022-07-29T10:44:49;29.10;58.70
47174;DHT22;36730;49.036;9.094;2022-07-29T10:47:25;29.20;58.60
47174;DHT22;36730;49.036;9.094;2022-07-29T10:49:55;29.20;58.50
47174;DHT22;36730;49.036;9.094;2022-07-29T10:52:20;29.20;58.40
47174;DHT22;36730;49.036;9.094;2022-07-29T10:54:48;29.10;57.90
47174;DHT22;36730;49.036;9.094;2022-07-29T11:07:23;29.00;58.20
47174;DHT22;36730;49.036;9.094;2022-07-29T11:15:04;29.10;57.30
47174;DHT22;36730;49.036;9.094;2022-07-29T11:18:02;29.10;56.90
47174;DHT22;36730;49.036;9.094;2022-07-29T11:22:57;29.20;56.40
47174;DHT22;36730;49.036;9.094;2022-07-29T11:25:23;29.20;55.80
47174;DHT22;36730;49.036;9.094;2022-07-29T11:27:48;29.20;55.80
47174;DHT22;36730;49.036;9.094;2022-07-29T11:30:14;29.20;56.50
47174;DHT22;36730;49.036;9.094;2022-07-29T11:32:41;29.20;56.40
47174;DHT22;36730;49.036;9.094;2022-07-29T11:35:10;29.20;55.50
47174;DHT22;36730;49.036;9.094;2022-07-29T11:37:36;29.30;55.90
47174;DHT22;36730;49.036;9.094;2022-07-29T11:44:59;29.30;55.80
47174;DHT22;36730;49.036;9.094;2022-07-29T11:47:26;29.40;55.80
47174;DHT22;36730;49.036;9.094;2022-07-29T11:49:52;29.40;55.70
47174;DHT22;36730;49.036;9.094;2022-07-29T11:52:18;29.30;55.00
47174;DHT22;36730;49.036;9.094;2022-07-29T11:54:44;29.30;55.60
47174;DHT22;36730;49.036;9.094;2022-07-29T11:57:12;29.30;55.10
47174;DHT22;36730;49.036;9.094;2022-07-29T11:59:45;29.30;54.50
47174;DHT22;36730;49.036;9.094;2022-07-29T12:02:11;29.30;54.70
47174;DHT22;36730;49.036;9.094;2022-07-29T12:04:52;29.30;54.60
47174;DHT22;36730;49.036;9.094;2022-07-29T12:07:18;29.30;54.50
47174;DHT22;36730;49.036;9.094;2022-07-29T12:09:50;29.30;54.40
47174;DHT22;36730;49.036;9.094;2022-07-29T12:12:17;29.40;54.40
47174;DHT22;36730;49.036;9.094;2022-07-29T12:14:42;29.40;53.80
47174;DHT22;36730;49.036;9.094;2022-07-29T12:17:30;29.30;54.70
47174;DHT22;36730;49.036;9.094;2022-07-29T12:19:57;29.30;54.90
47174;DHT22;36730;49.036;9.094;2022-07-29T12:24:54;29.20;54.40
47174;DHT22;36730;49.036;9.094;2022-07-29T12:27:19;29.30;54.20
47174;DHT22;36730;49.036;9.094;2022-07-29T12:29:54;29.30;54.40
47174;DHT22;36730;49.036;9.094;2022-07-29T12:32:20;29.30;54.50
47174;DHT22;36730;49.036;9.094;2022-07-29T12:34:46;29.30;54.50
47174;DHT22;36730;49.036;9.094;2022-07-29T12:37:11;29.30;54.30
47174;DHT22;36730;49.036;9.094;2022-07-29T12:39:37;29.40;54.40
47174;DHT22;36730;49.036;9.094;2022-07-29T12:42:10;29.40;54.20
47174;DHT22;36730;49.036;9.094;2022-07-29T12:44:48;29.40;53.50
47174;DHT22;36730;49.036;9.094;2022-07-29T12:47:14;29.30;53.40
47174;DHT22;36730;49.036;9.094;2022-07-29T12:49:40;29.30;53.80
47174;DHT22;36730;49.036;9.094;2022-07-29T12:54:50;29.30;54.30
47174;DHT22;36730;49.036;9.094;2022-07-29T12:57:15;29.30;53.80
47174;DHT22;36730;49.036;9.094;2022-07-29T12:59:41;29.30;53.70
47174;DHT22;36730;49.036;9.094;2022-07-29T13:02:06;29.30;53.70
47174;DHT22;36730;49.036;9.094;2022-07-29T13:04:32;29.20;52.50
47174;DHT22;36730;49.036;9.094;2022-07-29T13:07:05;29.20;52.20
47174;DHT22;36730;49.036;9.094;2022-07-29T13:09:39;29.10;52.20
47174;DHT22;36730;49.036;9.094;2022-07-29T13:12:08;29.00;52.30
47174;DHT22;36730;49.036;9.094;2022-07-29T13:14:38;28.90;52.30
47174;DHT22;36730;49.036;9.094;2022-07-29T13:19:40;29.00;52.60
47174;DHT22;36730;49.036;9.094;2022-07-29T13:22:06;29.10;52.70
47174;DHT22;36730;49.036;9.094;2022-07-29T13:24:32;29.20;52.50
47174;DHT22;36730;49.036;9.094;2022-07-29T13:26:57;29.20;52.30
47174;DHT22;36730;49.036;9.094;2022-07-29T13:29:23;29.30;52.40
47174;DHT22;36730;49.036;9.094;2022-07-29T13:31:48;29.40;52.30
47174;DHT22;36730;49.036;9.094;2022-07-29T13:34:14;29.40;52.00
47174;DHT22;36730;49.036;9.094;2022-07-29T13:36:39;29.50;52.00
47174;DHT22;36730;49.036;9.094;2022-07-29T13:39:05;29.50;51.80
47174;DHT22;36730;49.036;9.094;2022-07-29T13:41:30;29.60;52.10
47174;DHT22;36730;49.036;9.094;2022-07-29T13:43:56;29.60;52.00
47174;DHT22;36730;49.036;9.094;2022-07-29T13:46:21;29.70;51.90
47174;DHT22;36730;49.036;9.094;2022-07-29T13:48:47;29.70;51.80
47174;DHT22;36730;49.036;9.094;2022-07-29T13:51:12;29.80;51.70
47174;DHT22;36730;49.036;9.094;2022-07-29T13:53:38;29.80;51.60
47174;DHT22;36730;49.036;9.094;2022-07-29T13:56:04;29.90;51.60
47174;DHT22;36730;49.036;9.094;2022-07-29T13:58:31;29.90;51.90
47174;DHT22;36730;49.036;9.094;2022-07-29T14:00:58;29.90;52.10
47174;DHT22;36730;49.036;9.094;2022-07-29T14:03:23;29.90;51.60
47174;DHT22;36730;49.036;9.094;2022-07-29T14:05:49;29.90;51.60
47174;DHT22;36730;49.036;9.094;2022-07-29T14:08:15;30.00;51.90
47174;DHT22;36730;49.036;9.094;2022-07-29T14:10:40;30.00;51.50
47174;DHT22;36730;49.036;9.094;2022-07-29T14:13:06;30.00;51.50
47174;DHT22;36730;49.036;9.094;2022-07-29T14:15:31;30.00;51.60
47174;DHT22;36730;49.036;9.094;2022-07-29T14:17:57;30.00;51.40
47174;DHT22;36730;49.036;9.094;2022-07-29T14:20:22;30.00;51.50
47174;DHT22;36730;49.036;9.094;2022-07-29T14:22:48;30.00;51.50
47174;DHT22;36730;49.036;9.094;2022-07-29T14:25:13;30.00;51.40
47174;DHT22;36730;49.036;9.094;2022-07-29T14:27:39;30.00;51.30
47174;DHT22;36730;49.036;9.094;2022-07-29T14:30:05;30.00;51.10
47174;DHT22;36730;49.036;9.094;2022-07-29T14:32:31;30.00;51.20
47174;DHT22;36730;49.036;9.094;2022-07-29T14:34:56;30.00;51.30
47174;DHT22;36730;49.036;9.094;2022-07-29T14:37:22;30.10;51.40
47174;DHT22;36730;49.036;9.094;2022-07-29T14:39:47;30.00;51.00
47174;DHT22;36730;49.036;9.094;2022-07-29T14:42:13;30.00;50.70
47174;DHT22;36730;49.036;9.094;2022-07-29T14:44:39;30.00;51.10
47174;DHT22;36730;49.036;9.094;2022-07-29T14:47:04;30.00;51.40
47174;DHT22;36730;49.036;9.094;2022-07-29T14:49:30;30.00;51.20
47174;DHT22;36730;49.036;9.094;2022-07-29T14:51:55;30.00;50.90
47174;DHT22;36730;49.036;9.094;2022-07-29T14:54:21;30.00;50.70
47174;DHT22;36730;49.036;9.094;2022-07-29T14:56:47;30.10;50.80
47174;DHT22;36730;49.036;9.094;2022-07-29T14:59:14;30.10;50.70
47174;DHT22;36730;49.036;9.094;2022-07-29T15:01:40;30.00;50.10
47174;DHT22;36730;49.036;9.094;2022-07-29T15:04:05;30.00;50.90
47174;DHT22;36730;49.036;9.094;2022-07-29T15:06:31;30.00;50.10
47174;DHT22;36730;49.036;9.094;2022-07-29T15:08:56;30.00;50.10
47174;DHT22;36730;49.036;9.094;2022-07-29T15:11:22;30.00;50.40
47174;DHT22;36730;49.036;9.094;2022-07-29T15:13:47;30.00;50.00
47174;DHT22;36730;49.036;9.094;2022-07-29T15:16:13;30.00;50.00
47174;DHT22;36730;49.036;9.094;2022-07-29T15:18:38;29.90;49.90
47174;DHT22;36730;49.036;9.094;2022-07-29T15:21:04;29.90;49.60
47174;DHT22;36730;49.036;9.094;2022-07-29T15:23:32;29.90;49.40
47174;DHT22;36730;49.036;9.094;2022-07-29T15:25:58;29.90;49.40
47174;DHT22;36730;49.036;9.094;2022-07-29T15:28:23;29.90;49.70
47174;DHT22;36730;49.036;9.094;2022-07-29T15:30:49;29.90;49.50
47174;DHT22;36730;49.036;9.094;2022-07-29T15:33:14;29.90;49.10
47174;DHT22;36730;49.036;9.094;2022-07-29T15:35:40;29.90;49.10
47174;DHT22;36730;49.036;9.094;2022-07-29T15:38:05;29.80;48.60
47174;DHT22;36730;49.036;9.094;2022-07-29T15:40:31;29.80;48.90
47174;DHT22;36730;49.036;9.094;2022-07-29T15:42:57;29.80;48.70
47174;DHT22;36730;49.036;9.094;2022-07-29T15:45:25;29.80;48.80
47174;DHT22;36730;49.036;9.094;2022-07-29T15:47:51;29.80;49.20
47174;DHT22;36730;49.036;9.094;2022-07-29T15:50:16;29.80;48.80
47174;DHT22;36730;49.036;9.094;2022-07-29T15:52:42;29.90;48.60
47174;DHT22;36730;49.036;9.094;2022-07-29T15:55:08;29.90;48.50
47174;DHT22;36730;49.036;9.094;2022-07-29T15:57:34;29.90;48.50
47174;DHT22;36730;49.036;9.094;2022-07-29T15:59:59;29.90;48.10
47174;DHT22;36730;49.036;9.094;2022-07-29T16:02:25;29.90;48.30
47174;DHT22;36730;49.036;9.094;2022-07-29T16:04:50;29.90;48.10
47174;DHT22;36730;49.036;9.094;2022-07-29T16:07:16;29.90;47.90
47174;DHT22;36730;49.036;9.094;2022-07-29T16:09:42;29.90;47.80
47174;DHT22;36730;49.036;9.094;2022-07-29T16:12:08;29.90;47.70
47174;DHT22;36730;49.036;9.094;2022-07-29T16:14:34;29.90;47.60
47174;DHT22;36730;49.036;9.094;2022-07-29T16:16:59;29.80;47.60